createdAt,value
2022-08-20T00:01:16.950Z,72.80
2022-08-20T00:03:50.163Z,72.30
2022-08-20T00:06:23.798Z,72.00
2022-08-20T00:08:51.903Z,71.80
2022-08-20T00:11:25.612Z,72.30
2022-08-20T00:13:59.276Z,73.10
2022-08-20T00:16:32.849Z,73.60
2022-08-20T00:19:02.310Z,72.60
2022-08-20T00:21:29.532Z,73.20
2022-08-20T00:23:59.246Z,73.60
2022-08-20T00:26:26.715Z,74.10
2022-08-20T00:28:54.429Z,74.20
2022-08-20T00:31:24.383Z,73.50
2022-08-20T00:33:52.803Z,73.20
2022-08-20T00:36:20.783Z,73.60
2022-08-20T00:38:48.416Z,74.10
2022-08-20T00:41:22.590Z,74.80
2022-08-20T00:44:14.067Z,75.30
2022-08-20T00:46:43.591Z,74.90
2022-08-20T00:49:29.494Z,74.80
2022-08-20T00:52:09.612Z,75.10
2022-08-20T00:54:56.913Z,75.40
2022-08-20T00:58:00.439Z,75.00
2022-08-20T01:00:38.112Z,74.60
2022-08-20T01:03:09.989Z,74.20
2022-08-20T01:05:47.081Z,73.90
2022-08-20T01:08:17.170Z,73.50
2022-08-20T01:10:49.808Z,73.60
2022-08-20T01:13:24.336Z,74.40
2022-08-20T01:15:56.197Z,74.80
2022-08-20T01:18:28.651Z,75.20
2022-08-20T01:21:04.310Z,74.80
2022-08-20T01:23:53.277Z,74.30
2022-08-20T01:26:27.428Z,74.90
2022-08-20T01:29:04.596Z,75.40
2022-08-20T01:31:38.916Z,76.10
2022-08-20T01:34:12.559Z,76.00
2022-08-20T01:36:46.505Z,75.80
2022-08-20T01:39:22.056Z,75.30
2022-08-20T01:41:51.875Z,75.60
2022-08-20T01:44:21.248Z,75.30
2022-08-20T01:46:51.964Z,75.00
2022-08-20T01:49:53.628Z,74.80
2022-08-20T01:52:57.333Z,74.80
2022-08-20T01:55:26.917Z,75.70
2022-08-20T01:57:54.805Z,76.40
2022-08-20T02:00:24.057Z,75.90
2022-08-20T02:02:52.007Z,76.10
2022-08-20T02:05:20.802Z,77.40
2022-08-20T02:07:49.034Z,77.30
2022-08-20T02:10:18.235Z,77.10
2022-08-20T02:12:45.491Z,77.20
2022-08-20T02:15:14.169Z,78.10
2022-08-20T02:17:43.244Z,77.60
2022-08-20T02:20:17.421Z,77.90
2022-08-20T02:22:53.400Z,77.60
2022-08-20T02:25:28.012Z,77.80
2022-08-20T02:28:00.901Z,77.60
2022-08-20T02:30:34.185Z,77.40
2022-08-20T02:33:05.513Z,77.50
2022-08-20T02:35:35.655Z,77.10
2022-08-20T02:38:03.418Z,76.90
2022-08-20T02:40:31.642Z,77.60
2022-08-20T02:43:00.972Z,78.30
2022-08-20T02:45:30.407Z,79.20
2022-08-20T02:47:59.146Z,79.50
2022-08-20T02:50:28.017Z,79.80
2022-08-20T02:52:55.255Z,80.70
2022-08-20T02:55:27.412Z,80.70
2022-08-20T02:58:00.634Z,79.80
2022-08-20T03:00:38.081Z,79.30
2022-08-20T03:03:10.486Z,79.50
2022-08-20T03:05:41.765Z,79.80
2022-08-20T03:08:12.434Z,80.50
2022-08-20T03:10:43.043Z,80.40
2022-08-20T03:13:13.762Z,80.60
2022-08-20T03:15:49.162Z,81.40
2022-08-20T03:18:20.426Z,81.60
2022-08-20T03:20:52.080Z,81.70
2022-08-20T03:23:21.883Z,81.80
2022-08-20T03:25:50.028Z,81.30
2022-08-20T03:28:19.011Z,80.60
2022-08-20T03:30:46.890Z,81.00
2022-08-20T03:33:14.327Z,81.40
2022-08-20T03:35:41.432Z,81.60
2022-08-20T03:38:12.533Z,81.40
2022-08-20T03:40:41.746Z,81.40
2022-08-20T03:43:10.324Z,81.70
2022-08-20T03:45:41.031Z,81.30
2022-08-20T03:48:10.941Z,80.70
2022-08-20T03:50:42.555Z,80.90
2022-08-20T03:53:13.122Z,81.00
2022-08-20T03:55:46.410Z,81.40
2022-08-20T03:58:32.813Z,81.80
2022-08-20T04:01:06.588Z,81.80
2022-08-20T04:03:35.493Z,81.60
2022-08-20T04:06:03.027Z,82.30
2022-08-20T04:08:31.131Z,81.90
2022-08-20T04:10:59.815Z,82.00
2022-08-20T04:13:29.945Z,82.10
2022-08-20T04:16:01.142Z,82.10
2022-08-20T04:18:28.463Z,82.50
2022-08-20T04:20:55.939Z,82.10
2022-08-20T04:23:23.474Z,82.20
2022-08-20T04:25:50.825Z,82.30
2022-08-20T04:28:27.177Z,82.50
2022-08-20T04:30:58.148Z,82.70
2022-08-20T04:33:34.171Z,83.00
2022-08-20T04:36:06.321Z,82.90
2022-08-20T04:38:50.630Z,82.90
2022-08-20T04:41:23.717Z,83.20
2022-08-20T04:43:54.653Z,83.60
2022-08-20T04:46:25.943Z,84.30
2022-08-20T04:48:53.797Z,84.40
2022-08-20T04:51:23.236Z,83.70
2022-08-20T04:53:53.707Z,83.10
2022-08-20T04:56:25.992Z,83.20
2022-08-20T04:58:57.448Z,83.60
2022-08-20T05:01:26.338Z,84.50
2022-08-20T05:03:55.322Z,85.70
2022-08-20T05:06:28.663Z,85.90
2022-08-20T05:08:58.769Z,86.00
2022-08-20T05:11:36.124Z,85.70
2022-08-20T05:14:09.694Z,85.80
2022-08-20T05:16:40.539Z,84.80
2022-08-20T05:19:13.160Z,84.90
2022-08-20T05:21:41.537Z,85.50
2022-08-20T05:24:10.414Z,85.60
2022-08-20T05:26:37.609Z,85.70
2022-08-20T05:29:06.881Z,86.00
2022-08-20T05:31:35.695Z,86.20
2022-08-20T05:34:12.034Z,86.50
2022-08-20T05:36:48.138Z,86.80
2022-08-20T05:39:18.969Z,86.90
2022-08-20T05:41:46.516Z,86.70
2022-08-20T05:44:15.580Z,86.60
2022-08-20T05:46:45.637Z,86.50
2022-08-20T05:49:18.116Z,86.30
2022-08-20T05:51:45.840Z,86.50
2022-08-20T05:54:15.742Z,86.30
2022-08-20T05:56:43.417Z,86.10
2022-08-20T05:59:12.675Z,86.20
2022-08-20T06:01:43.027Z,85.70
2022-08-20T06:04:32.138Z,85.60
2022-08-20T06:07:07.226Z,85.30
2022-08-20T06:09:36.265Z,85.50
2022-08-20T06:12:08.965Z,85.50
2022-08-20T06:14:36.440Z,85.30
2022-08-20T06:17:19.181Z,85.60
2022-08-20T06:19:51.353Z,85.80
2022-08-20T06:22:25.696Z,85.80
2022-08-20T06:24:54.380Z,85.70
2022-08-20T06:27:22.596Z,85.60
2022-08-20T06:29:51.209Z,85.40
2022-08-20T06:32:21.194Z,85.40
2022-08-20T06:35:03.609Z,85.30
2022-08-20T06:37:34.124Z,85.50
2022-08-20T06:40:24.759Z,85.90
2022-08-20T06:43:03.041Z,84.80
2022-08-20T06:45:33.308Z,84.60
2022-08-20T06:48:07.335Z,84.40
2022-08-20T06:50:45.865Z,84.40
2022-08-20T06:53:19.527Z,84.30
2022-08-20T06:55:53.492Z,83.90
2022-08-20T06:58:36.767Z,84.00
2022-08-20T07:01:09.607Z,83.80
2022-08-20T07:03:55.668Z,83.90
2022-08-20T07:06:29.143Z,83.80
2022-08-20T07:08:57.325Z,84.00
2022-08-20T07:16:48.257Z,83.60
2022-08-20T07:19:16.697Z,83.20
2022-08-20T07:21:44.010Z,82.90
2022-08-20T07:24:13.054Z,82.80
2022-08-20T07:26:40.270Z,82.60
2022-08-20T07:29:07.658Z,82.40
2022-08-20T07:31:54.433Z,82.10
2022-08-20T07:34:22.129Z,82.10
2022-08-20T07:36:50.582Z,82.10
2022-08-20T07:39:24.196Z,81.80
2022-08-20T07:42:05.563Z,81.70
2022-08-20T07:47:00.448Z,81.50
2022-08-20T07:49:41.929Z,81.40
2022-08-20T07:52:14.941Z,81.40
2022-08-20T07:57:16.980Z,81.00
2022-08-20T08:02:34.568Z,80.70
2022-08-20T08:05:05.223Z,80.60
2022-08-20T08:15:34.560Z,80.50
2022-08-20T08:18:27.713Z,80.30
2022-08-20T08:20:58.287Z,80.20
2022-08-20T08:25:55.448Z,80.20
2022-08-20T08:28:27.036Z,80.20
2022-08-20T08:30:54.174Z,80.30
2022-08-20T08:33:33.624Z,80.10
2022-08-20T08:36:11.381Z,80.50
2022-08-20T08:38:42.445Z,80.40
2022-08-20T08:41:22.947Z,81.60
2022-08-20T08:43:54.455Z,80.90
2022-08-20T08:46:30.222Z,81.10
2022-08-20T08:49:01.712Z,81.10
2022-08-20T08:51:40.636Z,80.90
2022-08-20T08:54:17.489Z,80.90
2022-08-20T08:56:49.778Z,80.90
2022-08-20T08:59:20.381Z,80.90
2022-08-20T09:01:55.199Z,81.20
2022-08-20T09:04:32.677Z,81.20
2022-08-20T09:07:03.567Z,81.80
2022-08-20T09:09:37.457Z,82.00
2022-08-20T09:12:15.562Z,83.40
2022-08-20T09:14:42.692Z,83.80
2022-08-20T09:17:09.908Z,84.20
2022-08-20T09:19:37.372Z,84.80
2022-08-20T09:22:17.381Z,85.10
2022-08-20T09:24:45.265Z,85.60
2022-08-20T09:27:13.218Z,85.50
2022-08-20T09:29:40.524Z,86.20
2022-08-20T09:32:24.302Z,86.50
2022-08-20T09:34:59.434Z,86.80
2022-08-20T09:37:35.042Z,87.10
2022-08-20T09:40:06.490Z,87.10
2022-08-20T09:42:41.013Z,87.60
2022-08-20T09:45:11.650Z,87.80
2022-08-20T09:47:43.845Z,88.30
2022-08-20T09:50:24.329Z,88.60
2022-08-20T09:52:55.323Z,88.00
2022-08-20T09:55:41.526Z,87.80
2022-08-20T09:58:31.379Z,87.90
2022-08-20T10:01:07.784Z,88.20
2022-08-20T10:03:48.912Z,88.30
2022-08-20T10:06:19.898Z,88.70
2022-08-20T10:08:48.894Z,89.10
2022-08-20T10:11:18.069Z,89.20
2022-08-20T10:13:46.418Z,89.80
2022-08-20T10:16:13.946Z,89.90
2022-08-20T10:18:41.188Z,89.90
2022-08-20T10:21:12.390Z,90.00
2022-08-20T10:23:40.742Z,90.20
2022-08-20T10:26:11.160Z,90.20
2022-08-20T10:28:40.268Z,90.20
2022-08-20T10:31:12.825Z,90.30
2022-08-20T10:33:42.810Z,90.70
2022-08-20T10:36:17.858Z,90.60
2022-08-20T10:38:46.560Z,90.70
2022-08-20T10:41:15.515Z,90.60
2022-08-20T10:43:45.744Z,90.80
2022-08-20T10:46:14.508Z,90.90
2022-08-20T10:48:50.635Z,90.90
2022-08-20T10:51:22.936Z,90.90
2022-08-20T10:54:03.175Z,91.10
2022-08-20T10:56:45.716Z,91.20
2022-08-20T10:59:13.920Z,91.10
2022-08-20T11:01:45.358Z,91.10
2022-08-20T11:04:21.596Z,90.70
2022-08-20T11:09:32.361Z,90.90
2022-08-20T11:12:07.188Z,91.00
2022-08-20T11:14:46.404Z,90.90
2022-08-20T11:17:24.262Z,90.70
2022-08-20T11:22:40.777Z,91.10
2022-08-20T11:25:15.272Z,90.70
2022-08-20T11:28:00.472Z,90.50
2022-08-20T11:30:41.856Z,89.30
2022-08-20T11:33:16.058Z,89.10
2022-08-20T11:35:49.268Z,89.30
2022-08-20T11:41:36.092Z,90.30
2022-08-20T11:49:23.468Z,87.80
2022-08-20T11:51:52.488Z,88.80
2022-08-20T11:56:48.808Z,89.50
2022-08-20T11:59:26.338Z,89.20
2022-08-20T12:02:02.944Z,88.40
2022-08-20T12:04:33.423Z,87.50
2022-08-20T12:07:18.268Z,86.40
2022-08-20T12:09:50.895Z,85.60
2022-08-20T12:12:28.108Z,86.00
2022-08-20T12:14:56.798Z,86.30
2022-08-20T12:17:38.623Z,86.60
2022-08-20T12:23:08.463Z,86.00
2022-08-20T12:25:35.701Z,83.80
2022-08-20T12:28:05.162Z,82.20
2022-08-20T12:30:33.852Z,81.80
2022-08-20T12:33:01.616Z,81.40
2022-08-20T12:35:29.655Z,80.40
2022-08-20T12:38:03.685Z,79.70
2022-08-20T12:40:32.684Z,79.60
2022-08-20T12:43:03.262Z,78.60
2022-08-20T12:45:31.935Z,80.60
2022-08-20T12:48:13.130Z,77.60
2022-08-20T12:50:43.391Z,77.20
2022-08-20T12:53:10.646Z,76.20
2022-08-20T12:55:38.383Z,75.40
2022-08-20T12:58:09.044Z,76.20
2022-08-20T13:00:50.470Z,76.40
2022-08-20T13:03:20.550Z,74.00
2022-08-20T13:05:49.039Z,73.70
2022-08-20T13:08:18.009Z,74.10
2022-08-20T13:10:46.747Z,72.80
2022-08-20T13:13:21.277Z,73.90
2022-08-20T13:15:51.385Z,72.90
2022-08-20T13:18:20.572Z,72.10
2022-08-20T13:20:48.310Z,70.50
2022-08-20T13:23:19.431Z,71.30
2022-08-20T13:25:46.662Z,71.00
2022-08-20T13:28:13.927Z,70.10
2022-08-20T13:30:41.678Z,70.20
2022-08-20T13:33:08.911Z,68.30
2022-08-20T13:35:36.217Z,67.80
2022-08-20T13:38:03.541Z,67.80
2022-08-20T13:40:30.831Z,66.30
2022-08-20T13:42:58.437Z,64.20
2022-08-20T13:45:26.158Z,65.00
2022-08-20T13:47:55.820Z,65.60
2022-08-20T13:50:25.799Z,66.70
2022-08-20T13:52:53.221Z,64.90
2022-08-20T13:55:24.067Z,64.70
2022-08-20T13:57:53.426Z,65.60
2022-08-20T14:00:32.367Z,64.90
2022-08-20T14:03:06.357Z,63.20
2022-08-20T14:05:36.454Z,63.40
2022-08-20T14:10:58.375Z,63.50
2022-08-20T14:13:27.432Z,63.90
2022-08-20T14:16:01.657Z,63.50
2022-08-20T14:18:42.687Z,63.30
2022-08-20T14:21:15.844Z,62.30
2022-08-20T14:23:44.396Z,61.70
2022-08-20T14:26:16.792Z,62.00
2022-08-20T14:28:55.663Z,62.30
2022-08-20T14:31:22.866Z,62.70
2022-08-20T14:33:56.079Z,62.20
2022-08-20T14:36:23.710Z,63.50
2022-08-20T14:38:50.975Z,64.50
2022-08-20T14:41:18.131Z,65.40
2022-08-20T14:43:45.179Z,66.00
2022-08-20T14:46:12.320Z,66.50
2022-08-20T14:48:39.497Z,67.30
2022-08-20T14:51:09.884Z,67.80
2022-08-20T14:53:40.481Z,68.00
2022-08-20T14:56:08.007Z,68.60
2022-08-20T14:58:35.348Z,69.10
2022-08-20T15:01:02.612Z,68.80
2022-08-20T15:03:30.762Z,69.10
2022-08-20T15:05:59.302Z,68.50
2022-08-20T15:08:28.803Z,68.20
2022-08-20T15:10:56.193Z,67.40
2022-08-20T15:13:23.345Z,67.00
2022-08-20T15:15:50.536Z,67.30
2022-08-20T15:18:18.725Z,67.50
2022-08-20T15:20:45.855Z,66.90
2022-08-20T15:23:12.946Z,66.90
2022-08-20T15:25:40.072Z,67.40
2022-08-20T15:28:10.860Z,67.80
2022-08-20T15:30:40.952Z,67.60
2022-08-20T15:33:10.525Z,68.10
2022-08-20T15:35:38.291Z,67.50
2022-08-20T15:38:05.506Z,67.20
2022-08-20T15:40:33.864Z,67.50
2022-08-20T15:43:03.717Z,66.80
2022-08-20T15:45:32.374Z,67.10
2022-08-20T15:48:20.550Z,67.10
2022-08-20T15:51:08.759Z,67.00
2022-08-20T15:54:17.452Z,67.40
2022-08-20T15:57:21.241Z,67.90
2022-08-20T16:00:20.361Z,68.00
2022-08-20T16:03:10.851Z,68.00
2022-08-20T16:05:56.753Z,68.20
2022-08-20T16:08:29.968Z,68.40
2022-08-20T16:11:32.469Z,68.60
2022-08-20T16:14:34.924Z,69.20
2022-08-20T16:17:09.561Z,69.60
2022-08-20T16:19:59.829Z,69.90
2022-08-20T16:22:31.470Z,69.60
2022-08-20T16:24:58.955Z,69.80
2022-08-20T16:27:53.100Z,70.00
2022-08-20T16:30:49.477Z,70.00
2022-08-20T16:33:41.750Z,70.50
2022-08-20T16:36:33.481Z,70.10
2022-08-20T16:39:17.408Z,69.60
2022-08-20T16:41:49.548Z,69.30
2022-08-20T16:44:35.272Z,69.30
2022-08-20T16:47:17.196Z,69.20
2022-08-20T16:50:04.653Z,69.40
2022-08-20T16:52:32.271Z,69.80
2022-08-20T16:54:59.617Z,70.20
2022-08-20T16:57:29.927Z,70.90
2022-08-20T17:00:30.494Z,71.40
2022-08-20T17:03:08.028Z,71.70
2022-08-20T17:05:38.154Z,72.20
2022-08-20T17:08:15.367Z,72.30
2022-08-20T17:11:12.561Z,72.30
2022-08-20T17:13:44.949Z,72.50
2022-08-20T17:16:15.123Z,72.70
2022-08-20T17:18:50.947Z,72.60
2022-08-20T17:21:35.596Z,72.50
2022-08-20T17:24:21.397Z,72.40
2022-08-20T17:27:03.452Z,72.40
2022-08-20T17:29:38.468Z,72.40
2022-08-20T17:32:28.160Z,72.20
2022-08-20T17:35:00.521Z,71.80
2022-08-20T17:37:34.364Z,71.60
2022-08-20T17:40:25.232Z,71.30
2022-08-20T17:43:29.629Z,71.40
2022-08-20T17:46:03.044Z,71.40
2022-08-20T17:48:42.996Z,71.60
2022-08-20T17:51:38.780Z,71.60
2022-08-20T17:54:32.930Z,71.20
2022-08-20T17:57:07.213Z,71.30
2022-08-20T18:00:00.059Z,71.50
2022-08-20T18:02:29.985Z,71.60
2022-08-20T18:04:57.348Z,71.60
2022-08-20T18:07:53.544Z,71.70
2022-08-20T18:10:27.276Z,71.80
2022-08-20T18:13:09.427Z,72.00
2022-08-20T18:15:49.083Z,71.80
2022-08-20T18:18:56.870Z,72.10
2022-08-20T18:21:47.228Z,72.50
2022-08-20T18:24:26.417Z,72.60
2022-08-20T18:27:09.160Z,72.70
2022-08-20T18:29:43.565Z,72.90
2022-08-20T18:32:51.130Z,72.90
2022-08-20T18:35:33.192Z,72.90
2022-08-20T18:38:22.345Z,73.20
2022-08-20T18:40:54.891Z,73.50
2022-08-20T18:43:31.499Z,73.50
2022-08-20T18:46:23.846Z,73.50
2022-08-20T18:48:56.278Z,73.40
2022-08-20T18:51:36.280Z,73.70
2022-08-20T18:54:04.664Z,73.70
2022-08-20T18:56:42.827Z,73.90
2022-08-20T18:59:19.980Z,74.20
2022-08-20T19:01:49.323Z,74.30
2022-08-20T19:04:33.806Z,74.70
2022-08-20T19:07:05.813Z,74.90
2022-08-20T19:10:07.830Z,75.20
2022-08-20T19:13:32.888Z,76.10
2022-08-20T19:16:09.681Z,76.20
2022-08-20T19:18:36.759Z,76.30
2022-08-20T19:21:04.917Z,75.70
2022-08-20T19:23:54.149Z,75.30
2022-08-20T19:26:25.629Z,76.00
2022-08-20T19:29:07.270Z,76.20
2022-08-20T19:31:36.411Z,76.70
2022-08-20T19:34:21.563Z,77.00
2022-08-20T19:37:39.861Z,77.20
2022-08-20T19:40:31.910Z,77.10
2022-08-20T19:43:03.145Z,76.30
2022-08-20T19:45:38.721Z,76.10
2022-08-20T19:48:53.972Z,76.20
2022-08-20T19:51:53.130Z,76.60
2022-08-20T19:54:24.242Z,77.10
2022-08-20T19:56:56.731Z,77.70
2022-08-20T19:59:24.335Z,77.60
2022-08-20T20:02:04.860Z,77.30
2022-08-20T20:04:54.891Z,77.60
2022-08-20T20:07:48.617Z,77.60
2022-08-20T20:10:33.160Z,78.40
2022-08-20T20:13:16.997Z,79.00
2022-08-20T20:15:44.892Z,79.20
2022-08-20T20:18:13.797Z,79.20
2022-08-20T20:20:57.173Z,79.30
2022-08-20T20:23:38.724Z,78.60
2022-08-20T20:26:19.971Z,78.60
2022-08-20T20:28:50.966Z,79.20
2022-08-20T20:31:25.713Z,78.90
2022-08-20T20:33:58.367Z,78.70
2022-08-20T20:36:45.593Z,78.70
2022-08-20T20:39:31.207Z,78.80
2022-08-20T20:42:01.905Z,79.60
2022-08-20T20:44:43.276Z,80.30
2022-08-20T20:47:26.734Z,80.20
2022-08-20T20:50:06.162Z,79.80
2022-08-20T20:52:49.595Z,79.30
2022-08-20T20:55:31.772Z,79.30
2022-08-20T20:58:02.751Z,80.30
2022-08-20T21:00:33.385Z,80.40
2022-08-20T21:03:02.653Z,80.90
2022-08-20T21:05:32.661Z,82.00
2022-08-20T21:08:06.072Z,81.80
2022-08-20T21:10:37.695Z,81.90
2022-08-20T21:13:08.197Z,82.50
2022-08-20T21:15:37.833Z,82.70
2022-08-20T21:18:09.119Z,83.20
2022-08-20T21:20:37.315Z,83.50
2022-08-20T21:23:05.318Z,83.00
2022-08-20T21:25:35.172Z,82.50
2022-08-20T21:28:03.500Z,81.90
2022-08-20T21:30:31.604Z,82.20
2022-08-20T21:32:59.221Z,83.60
2022-08-20T21:35:27.033Z,82.90
2022-08-20T21:37:54.401Z,83.20
2022-08-20T21:40:22.058Z,83.20
2022-08-20T21:42:50.106Z,83.90
2022-08-20T21:45:19.654Z,83.90
2022-08-20T21:47:48.856Z,83.20
2022-08-20T21:50:19.234Z,83.20
2022-08-20T21:52:55.498Z,83.50
2022-08-20T21:55:35.037Z,83.70
2022-08-20T21:58:05.540Z,84.30
2022-08-20T22:00:53.442Z,84.30
2022-08-20T22:03:24.916Z,84.30
2022-08-20T22:05:52.903Z,83.70
2022-08-20T22:08:21.308Z,83.20
2022-08-20T22:10:57.184Z,83.30
2022-08-20T22:13:31.377Z,84.60
2022-08-20T22:16:06.340Z,85.10
2022-08-20T22:18:34.780Z,85.50
2022-08-20T22:21:03.071Z,86.00
2022-08-20T22:23:30.411Z,86.30
2022-08-20T22:25:57.566Z,86.40
2022-08-20T22:28:25.366Z,86.50
2022-08-20T22:30:53.081Z,86.50
2022-08-20T22:33:24.470Z,85.60
2022-08-20T22:35:55.732Z,85.90
2022-08-20T22:38:23.576Z,85.50
2022-08-20T22:40:51.607Z,85.00
2022-08-20T22:43:18.874Z,84.60
2022-08-20T22:45:49.944Z,84.80
2022-08-20T22:48:20.251Z,85.60
2022-08-20T22:50:50.280Z,86.20
2022-08-20T22:53:20.802Z,86.80
2022-08-20T22:55:48.976Z,86.30
2022-08-20T22:58:17.689Z,85.60
2022-08-20T23:00:47.449Z,85.50
2022-08-20T23:03:19.872Z,85.30
2022-08-20T23:06:09.229Z,85.20
2022-08-20T23:08:38.224Z,85.90
2022-08-20T23:11:06.254Z,85.20
2022-08-20T23:13:33.617Z,85.20
2022-08-20T23:16:01.756Z,85.70
2022-08-20T23:18:29.061Z,86.50
2022-08-20T23:20:59.178Z,86.50
2022-08-20T23:23:27.685Z,86.30
2022-08-20T23:25:55.613Z,86.70
2022-08-20T23:28:25.504Z,87.10
2022-08-20T23:30:52.966Z,86.80
2022-08-20T23:33:20.164Z,86.20
2022-08-20T23:35:48.048Z,85.50
2022-08-20T23:38:15.600Z,85.60
2022-08-20T23:40:43.531Z,86.30
2022-08-20T23:43:10.745Z,87.10
2022-08-20T23:45:40.337Z,87.90
2022-08-20T23:48:08.817Z,88.50
2022-08-20T23:50:37.215Z,88.00
2022-08-20T23:53:05.440Z,87.20
2022-08-20T23:55:32.941Z,87.60
2022-08-20T23:58:00.454Z,88.00
